createdAt,value
2018-06-04T00:00:31.321Z,21.90
2018-06-04T00:03:00.903Z,21.90
2018-06-04T00:05:29.733Z,21.70
2018-06-04T00:07:58.581Z,21.70
2018-06-04T00:10:27.418Z,21.50
2018-06-04T00:12:56.260Z,21.40
2018-06-04T00:15:25.083Z,21.30
2018-06-04T00:17:53.922Z,21.40
2018-06-04T00:20:22.757Z,21.30
2018-06-04T00:22:51.595Z,21.40
2018-06-04T00:25:20.427Z,21.40
2018-06-04T00:27:50.006Z,21.30
2018-06-04T00:30:18.859Z,21.30
2018-06-04T00:32:47.702Z,21.10
2018-06-04T00:35:16.555Z,21.00
2018-06-04T00:37:45.393Z,21.00
2018-06-04T00:40:14.963Z,20.90
2018-06-04T00:42:43.802Z,20.90
2018-06-04T00:45:12.706Z,20.90
2018-06-04T00:47:41.476Z,20.90
2018-06-04T00:50:10.323Z,20.90
2018-06-04T00:52:39.163Z,20.90
2018-06-04T00:55:07.998Z,20.90
2018-06-04T00:57:36.844Z,20.90
2018-06-04T01:00:05.683Z,20.90
2018-06-04T01:02:35.248Z,20.90
2018-06-04T01:05:04.094Z,20.80
2018-06-04T01:07:32.933Z,20.80
2018-06-04T01:10:01.775Z,20.70
2018-06-04T01:12:30.626Z,20.70
2018-06-04T01:14:59.463Z,20.60
2018-06-04T01:17:28.311Z,20.40
2018-06-04T01:19:57.145Z,20.50
2018-06-04T01:22:25.993Z,20.40
2018-06-04T01:24:54.839Z,20.50
2018-06-04T01:27:23.684Z,20.40
2018-06-04T01:29:53.278Z,20.30
2018-06-04T01:32:22.121Z,20.40
2018-06-04T01:34:51.001Z,20.30
2018-06-04T01:37:20.565Z,20.30
2018-06-04T01:39:49.400Z,20.20
2018-06-04T01:42:18.251Z,20.20
2018-06-04T01:44:47.098Z,20.10
2018-06-04T01:47:15.952Z,20.10
2018-06-04T01:49:44.792Z,20.10
2018-06-04T01:52:13.631Z,20.00
2018-06-04T01:54:42.466Z,20.00
2018-06-04T01:57:11.315Z,20.00
2018-06-04T01:59:40.152Z,20.00
2018-06-04T02:02:08.992Z,19.90
2018-06-04T02:04:37.837Z,19.90
2018-06-04T02:07:06.677Z,19.90
2018-06-04T02:09:35.527Z,19.80
2018-06-04T02:12:04.368Z,19.70
2018-06-04T02:14:33.204Z,19.80
2018-06-04T02:17:02.076Z,19.80
2018-06-04T02:19:30.924Z,19.70
2018-06-04T02:21:59.776Z,19.80
2018-06-04T02:24:28.633Z,19.80
2018-06-04T02:26:57.487Z,19.80
2018-06-04T02:29:26.330Z,19.70
2018-06-04T02:31:55.192Z,19.80
2018-06-04T02:34:24.039Z,19.70
2018-06-04T02:36:52.878Z,19.70
2018-06-04T02:39:21.726Z,19.70
2018-06-04T02:41:51.319Z,19.80
2018-06-04T02:44:20.908Z,19.70
2018-06-04T02:46:49.759Z,19.80
2018-06-04T02:49:18.596Z,19.80
2018-06-04T02:51:47.458Z,19.80
2018-06-04T02:54:16.297Z,19.80
2018-06-04T02:56:45.177Z,19.90
2018-06-04T02:59:13.984Z,19.80
2018-06-04T03:01:42.833Z,19.70
2018-06-04T03:04:11.685Z,19.70
2018-06-04T03:06:40.534Z,19.60
2018-06-04T03:09:10.388Z,19.60
2018-06-04T03:11:39.237Z,19.70
2018-06-04T03:14:08.819Z,19.70
2018-06-04T03:16:37.678Z,19.80
2018-06-04T03:19:06.532Z,19.90
2018-06-04T03:21:35.374Z,19.90
2018-06-04T03:24:04.212Z,19.90
2018-06-04T03:26:33.062Z,19.80
2018-06-04T03:29:01.909Z,19.60
2018-06-04T03:31:30.746Z,19.60
2018-06-04T03:33:59.603Z,19.60
2018-06-04T03:36:28.437Z,19.50
2018-06-04T03:38:58.018Z,19.40
2018-06-04T03:41:26.853Z,19.40
2018-06-04T03:43:55.692Z,19.40
2018-06-04T03:46:24.540Z,19.30
2018-06-04T03:48:53.385Z,19.30
2018-06-04T03:51:22.238Z,19.30
2018-06-04T03:53:51.080Z,19.40
2018-06-04T03:56:19.935Z,19.30
2018-06-04T03:58:48.772Z,19.20
2018-06-04T04:01:17.620Z,19.20
2018-06-04T04:03:46.452Z,19.20
2018-06-04T04:06:15.298Z,19.20
2018-06-04T04:08:44.135Z,19.20
2018-06-04T04:11:12.974Z,19.20
2018-06-04T04:13:41.808Z,19.20
2018-06-04T04:16:10.654Z,19.10
2018-06-04T04:18:39.493Z,19.20
2018-06-04T04:21:08.333Z,19.20
2018-06-04T04:23:37.168Z,19.10
2018-06-04T04:26:06.015Z,19.10
2018-06-04T04:28:34.854Z,19.20
2018-06-04T04:31:03.696Z,19.30
2018-06-04T04:33:32.538Z,19.20
2018-06-04T04:36:01.377Z,19.20
2018-06-04T04:38:30.232Z,19.30
2018-06-04T04:40:59.073Z,19.30
2018-06-04T04:43:28.655Z,19.20
2018-06-04T04:45:57.505Z,19.30
2018-06-04T04:48:26.354Z,19.30
2018-06-04T04:50:55.944Z,19.30
2018-06-04T04:53:24.789Z,19.40
2018-06-04T04:55:53.738Z,19.50
2018-06-04T04:58:22.577Z,19.50
2018-06-04T05:00:51.423Z,19.50
2018-06-04T05:03:20.276Z,19.60
2018-06-04T05:05:49.160Z,19.50
2018-06-04T05:08:17.964Z,19.60
2018-06-04T05:10:46.795Z,19.60
2018-06-04T05:13:15.643Z,19.50
2018-06-04T05:15:44.501Z,19.50
2018-06-04T05:18:13.326Z,19.40
2018-06-04T05:20:42.917Z,19.50
2018-06-04T05:23:11.772Z,19.60
2018-06-04T05:25:40.617Z,19.60
2018-06-04T05:28:09.461Z,19.70
2018-06-04T05:30:38.299Z,19.70
2018-06-04T05:33:07.891Z,19.70
2018-06-04T05:35:36.732Z,19.80
2018-06-04T05:38:05.585Z,19.90
2018-06-04T05:40:34.439Z,20.00
2018-06-04T05:43:03.272Z,20.00
2018-06-04T05:45:32.866Z,20.00
2018-06-04T05:48:01.746Z,20.10
2018-06-04T05:50:30.599Z,20.20
2018-06-04T05:52:59.449Z,20.30
2018-06-04T05:55:29.037Z,20.30
2018-06-04T05:57:57.913Z,20.50
2018-06-04T06:00:26.721Z,20.60
2018-06-04T06:02:55.571Z,20.70
2018-06-04T06:05:24.408Z,20.70
2018-06-04T06:07:53.997Z,20.70
2018-06-04T06:10:22.863Z,20.70
2018-06-04T06:12:51.698Z,20.80
2018-06-04T06:15:21.294Z,21.00
2018-06-04T06:17:50.151Z,21.00
2018-06-04T06:20:18.996Z,21.10
2018-06-04T06:22:47.857Z,21.10
2018-06-04T06:25:16.695Z,21.20
2018-06-04T06:27:45.535Z,21.20
2018-06-04T06:30:14.376Z,21.20
2018-06-04T06:32:43.245Z,21.30
2018-06-04T06:35:12.093Z,21.30
2018-06-04T06:37:41.001Z,21.40
2018-06-04T06:40:09.790Z,21.50
2018-06-04T06:42:38.626Z,21.60
2018-06-04T06:45:07.460Z,21.60
2018-06-04T06:50:05.803Z,21.60
2018-06-04T06:52:35.340Z,21.70
2018-06-04T06:55:04.182Z,21.80
2018-06-04T06:57:33.038Z,21.80
2018-06-04T07:00:02.631Z,21.80
2018-06-04T07:02:31.481Z,21.90
2018-06-04T07:05:00.331Z,22.00
2018-06-04T07:07:29.209Z,22.10
2018-06-04T07:09:58.038Z,22.30
2018-06-04T07:12:26.889Z,22.40
2018-06-04T07:14:55.740Z,22.50
2018-06-04T07:17:24.588Z,22.60
2018-06-04T07:19:53.435Z,22.60
2018-06-04T07:22:22.285Z,22.60
2018-06-04T07:24:51.125Z,22.70
2018-06-04T07:27:19.976Z,22.70
2018-06-04T07:29:48.825Z,22.70
2018-06-04T07:32:18.407Z,22.80
2018-06-04T07:34:47.307Z,22.90
2018-06-04T07:37:16.115Z,22.90
2018-06-04T07:39:45.710Z,22.90
2018-06-04T07:42:14.557Z,23.10
2018-06-04T07:44:43.590Z,23.10
2018-06-04T07:47:12.445Z,23.10
2018-06-04T07:49:41.300Z,23.20
2018-06-04T07:52:10.157Z,23.40
2018-06-04T07:54:39.756Z,23.30
2018-06-04T07:57:08.617Z,23.30
2018-06-04T07:59:37.467Z,23.40
2018-06-04T08:02:06.307Z,23.40
2018-06-04T08:04:35.159Z,23.50
2018-06-04T08:07:04.023Z,23.50
2018-06-04T08:09:32.864Z,23.60
2018-06-04T08:12:01.708Z,23.60
2018-06-04T08:14:31.297Z,23.60
2018-06-04T08:17:00.136Z,23.70
2018-06-04T08:19:28.978Z,23.70
2018-06-04T08:21:57.839Z,23.80
2018-06-04T08:24:26.688Z,23.90
2018-06-04T08:26:55.526Z,24.00
2018-06-04T08:29:24.379Z,24.20
2018-06-04T08:31:53.221Z,24.20
2018-06-04T08:34:22.072Z,24.20
2018-06-04T08:36:50.923Z,24.20
2018-06-04T08:39:19.760Z,24.40
2018-06-04T08:41:48.599Z,24.50
2018-06-04T08:44:17.440Z,24.60
2018-06-04T08:46:46.287Z,24.70
2018-06-04T08:49:15.126Z,24.60
2018-06-04T08:51:43.963Z,24.70
2018-06-04T08:54:12.834Z,24.70
2018-06-04T08:56:42.410Z,24.80
2018-06-04T08:59:11.262Z,25.00
2018-06-04T09:01:40.108Z,24.80
2018-06-04T09:04:09.695Z,24.90
2018-06-04T09:06:38.542Z,25.10
2018-06-04T09:09:07.392Z,25.10
2018-06-04T09:11:36.243Z,25.20
2018-06-04T09:14:05.090Z,25.20
2018-06-04T09:16:33.937Z,25.40
2018-06-04T09:19:02.772Z,25.60
2018-06-04T09:21:31.612Z,25.40
2018-06-04T09:24:00.473Z,25.40
2018-06-04T09:26:29.311Z,25.60
2018-06-04T09:28:58.166Z,25.80
2018-06-04T09:31:27.014Z,25.80
2018-06-04T09:33:56.600Z,25.80
2018-06-04T09:36:25.587Z,25.90
2018-06-04T09:38:55.186Z,26.00
2018-06-04T09:41:24.071Z,26.10
2018-06-04T09:43:52.884Z,25.90
2018-06-04T09:46:22.478Z,26.20
2018-06-04T09:48:52.072Z,26.40
2018-06-04T09:51:20.926Z,26.50
2018-06-04T09:53:49.774Z,26.50
2018-06-04T09:56:18.615Z,26.50
2018-06-04T09:58:47.461Z,26.50
2018-06-04T10:01:16.314Z,26.60
2018-06-04T10:03:45.161Z,26.80
2018-06-04T10:06:14.168Z,26.90
2018-06-04T10:08:42.994Z,26.90
2018-06-04T10:11:11.834Z,26.80
2018-06-04T10:13:40.667Z,27.00
2018-06-04T10:16:09.498Z,26.90
2018-06-04T10:18:38.333Z,26.80
2018-06-04T10:21:07.174Z,27.00
2018-06-04T10:23:36.006Z,27.10
2018-06-04T10:26:04.832Z,27.20
2018-06-04T10:28:33.674Z,27.40
2018-06-04T10:31:02.507Z,27.60
2018-06-04T10:33:31.383Z,27.60
2018-06-04T10:36:00.221Z,27.70
2018-06-04T10:38:29.052Z,27.80
2018-06-04T10:40:57.882Z,27.80
2018-06-04T10:43:27.457Z,27.70
2018-06-04T10:45:56.281Z,27.80
2018-06-04T10:48:25.124Z,27.60
2018-06-04T10:50:53.959Z,27.80
2018-06-04T10:53:23.038Z,27.80
2018-06-04T10:58:21.317Z,28.10
2018-06-04T11:00:50.178Z,28.50
2018-06-04T11:03:19.022Z,28.70
2018-06-04T11:05:47.851Z,28.90
2018-06-04T11:08:16.689Z,28.90
2018-06-04T11:10:46.269Z,28.90
2018-06-04T11:13:15.117Z,29.10
2018-06-04T11:15:43.966Z,28.60
2018-06-04T11:18:13.546Z,28.80
2018-06-04T11:20:42.400Z,28.90
2018-06-04T11:23:11.457Z,28.90
2018-06-04T11:25:40.325Z,28.90
2018-06-04T11:28:09.135Z,29.00
2018-06-04T11:30:38.721Z,29.20
2018-06-04T11:33:07.549Z,29.20
2018-06-04T11:35:36.387Z,29.20
2018-06-04T11:38:05.225Z,29.40
2018-06-04T11:40:34.059Z,29.50
2018-06-04T11:43:02.896Z,29.70
2018-06-04T11:45:31.736Z,29.60
2018-06-04T11:48:00.574Z,29.50
2018-06-04T11:50:29.404Z,29.80
2018-06-04T11:52:58.249Z,30.00
2018-06-04T11:55:27.152Z,30.20
2018-06-04T11:57:55.961Z,30.20
2018-06-04T12:00:24.794Z,30.50
2018-06-04T12:02:53.623Z,30.50
2018-06-04T12:05:22.469Z,30.50
2018-06-04T12:07:51.304Z,30.60
2018-06-04T12:10:20.133Z,30.50
2018-06-04T12:12:48.966Z,30.80
2018-06-04T12:15:18.560Z,30.70
2018-06-04T12:17:48.148Z,30.60
2018-06-04T12:20:16.976Z,30.80
2018-06-04T12:22:45.818Z,31.20
2018-06-04T12:25:14.650Z,31.20
2018-06-04T12:27:43.483Z,31.20
2018-06-04T12:30:12.312Z,30.90
2018-06-04T12:32:41.895Z,30.60
2018-06-04T12:37:40.949Z,30.60
2018-06-04T12:40:10.489Z,30.60
2018-06-04T12:42:39.318Z,30.70
2018-06-04T12:45:08.905Z,30.90
2018-06-04T12:47:37.863Z,30.80
2018-06-04T12:50:06.633Z,30.60
2018-06-04T12:52:35.476Z,30.40
2018-06-04T12:55:04.368Z,30.20
2018-06-04T12:57:33.194Z,30.10
2018-06-04T13:00:02.063Z,30.30
2018-06-04T13:02:31.648Z,30.90
2018-06-04T13:05:00.489Z,31.40
2018-06-04T13:07:29.326Z,31.50
2018-06-04T13:09:58.161Z,31.70
2018-06-04T13:12:27.005Z,30.90
2018-06-04T13:14:55.848Z,30.70
2018-06-04T13:17:24.690Z,30.50
2018-06-04T13:19:53.522Z,30.50
2018-06-04T13:22:22.370Z,30.60
2018-06-04T13:24:51.236Z,30.50
2018-06-04T13:27:20.061Z,30.20
2018-06-04T13:29:48.905Z,30.10
2018-06-04T13:32:17.735Z,30.00
2018-06-04T13:34:47.309Z,29.90
2018-06-04T13:37:16.149Z,30.00
2018-06-04T13:39:44.990Z,30.00
2018-06-04T13:42:13.837Z,30.10
2018-06-04T13:44:42.681Z,30.20
2018-06-04T13:47:11.523Z,30.30
2018-06-04T13:49:40.366Z,30.30
2018-06-04T13:52:09.191Z,30.40
2018-06-04T13:54:38.034Z,30.60
2018-06-04T13:57:06.884Z,30.80
2018-06-04T13:59:35.718Z,31.10
2018-06-04T14:02:04.557Z,31.20
2018-06-04T14:04:33.397Z,31.60
2018-06-04T14:07:02.232Z,31.50
2018-06-04T14:09:31.068Z,31.40
2018-06-04T14:11:59.921Z,31.50
2018-06-04T14:14:28.778Z,32.00
2018-06-04T14:16:58.353Z,32.10
2018-06-04T14:21:57.393Z,32.50
2018-06-04T14:24:26.235Z,32.70
2018-06-04T14:26:55.069Z,32.90
2018-06-04T14:29:24.655Z,33.10
2018-06-04T14:31:53.498Z,33.10
2018-06-04T14:34:22.342Z,32.90
2018-06-04T14:36:51.186Z,32.50
2018-06-04T14:39:20.013Z,32.30
2018-06-04T14:41:48.859Z,32.70
2018-06-04T14:44:17.728Z,32.60
2018-06-04T14:46:47.292Z,32.80
2018-06-04T14:49:16.144Z,32.90
2018-06-04T14:51:44.969Z,33.00
2018-06-04T14:54:13.804Z,33.30
2018-06-04T14:56:42.648Z,33.00
2018-06-04T14:59:12.217Z,33.30
2018-06-04T15:01:41.041Z,33.40
2018-06-04T15:04:09.876Z,32.90
2018-06-04T15:06:38.701Z,32.80
2018-06-04T15:09:07.549Z,32.60
2018-06-04T15:11:36.396Z,33.00
2018-06-04T15:14:05.221Z,33.10
2018-06-04T15:16:35.057Z,32.80
2018-06-04T15:19:03.643Z,33.20
2018-06-04T15:21:32.471Z,33.20
2018-06-04T15:24:01.316Z,33.30
2018-06-04T15:26:30.150Z,33.30
2018-06-04T15:28:58.981Z,33.50
2018-06-04T15:31:27.850Z,33.40
2018-06-04T15:33:57.433Z,33.50
2018-06-04T15:36:26.923Z,33.30
2018-06-04T15:38:55.178Z,33.30
2018-06-04T15:41:24.014Z,33.40
2018-06-04T15:43:52.911Z,33.50
2018-06-04T15:46:21.697Z,33.10
2018-06-04T15:48:51.282Z,32.40
2018-06-04T15:51:20.125Z,32.50
2018-06-04T15:53:48.977Z,33.00
2018-06-04T15:56:17.806Z,33.00
2018-06-04T15:58:46.637Z,33.00
2018-06-04T16:01:15.472Z,33.20
2018-06-04T16:03:44.337Z,33.40
2018-06-04T16:06:13.446Z,33.10
2018-06-04T16:08:43.018Z,32.40
2018-06-04T16:11:11.852Z,32.50
2018-06-04T16:13:40.682Z,32.50
2018-06-04T16:16:09.516Z,32.70
2018-06-04T16:18:38.364Z,32.60
2018-06-04T16:21:07.214Z,32.90
2018-06-04T16:23:36.774Z,32.80
2018-06-04T16:26:05.616Z,32.70
2018-06-04T16:28:34.453Z,32.80
2018-06-04T16:31:03.287Z,32.80
2018-06-04T16:33:32.126Z,32.50
2018-06-04T16:36:00.968Z,32.70
2018-06-04T16:38:29.815Z,32.90
2018-06-04T16:40:58.642Z,32.80
2018-06-04T16:43:27.563Z,32.50
2018-06-04T16:45:57.112Z,32.40
2018-06-04T16:48:26.710Z,32.20
2018-06-04T16:50:55.551Z,32.20
2018-06-04T16:53:24.390Z,31.90
2018-06-04T16:55:53.976Z,31.60
2018-06-04T16:58:23.050Z,31.50
2018-06-04T17:00:51.896Z,31.50
2018-06-04T17:03:20.738Z,31.50
2018-06-04T17:05:49.572Z,31.30
2018-06-04T17:08:19.187Z,31.20
2018-06-04T17:10:48.311Z,31.30
2018-06-04T17:13:17.160Z,31.30
2018-06-04T17:15:45.990Z,31.30
2018-06-04T17:18:14.829Z,31.20
2018-06-04T17:20:43.656Z,31.00
2018-06-04T17:23:12.497Z,31.10
2018-06-04T17:25:41.316Z,31.00
2018-06-04T17:28:10.204Z,30.70
2018-06-04T17:30:38.992Z,30.60
2018-06-04T17:33:07.875Z,30.50
2018-06-04T17:35:36.673Z,30.30
2018-06-04T17:38:05.506Z,30.20
2018-06-04T17:40:34.337Z,30.20
2018-06-04T17:43:03.922Z,30.10
2018-06-04T17:48:02.930Z,29.90
2018-06-04T17:50:31.780Z,29.70
2018-06-04T17:53:00.627Z,29.70
2018-06-04T17:55:29.464Z,29.70
2018-06-04T17:57:58.324Z,29.60
2018-06-04T18:00:27.178Z,29.60
2018-06-04T18:02:56.026Z,29.50
2018-06-04T18:05:24.872Z,29.40
2018-06-04T18:07:54.452Z,29.40
2018-06-04T18:10:23.300Z,29.30
2018-06-04T18:12:52.148Z,29.10
2018-06-04T18:15:20.996Z,29.10
2018-06-04T18:17:49.835Z,29.00
2018-06-04T18:20:19.418Z,29.00
2018-06-04T18:22:48.251Z,28.90
2018-06-04T18:25:17.115Z,28.90
2018-06-04T18:27:45.951Z,28.80
2018-06-04T18:30:14.805Z,28.70
2018-06-04T18:32:44.381Z,28.70
2018-06-04T18:35:13.222Z,28.60
2018-06-04T18:37:42.042Z,28.60
2018-06-04T18:40:10.883Z,28.40
2018-06-04T18:42:40.479Z,28.30
2018-06-04T18:45:09.330Z,28.30
2018-06-04T18:47:38.188Z,28.30
2018-06-04T18:50:07.033Z,28.20
2018-06-04T18:55:04.529Z,28.10
2018-06-04T18:57:34.237Z,28.00
2018-06-04T19:00:03.083Z,28.00
2018-06-04T19:02:31.912Z,28.00
2018-06-04T19:05:01.493Z,27.90
2018-06-04T19:07:30.320Z,27.80
2018-06-04T19:09:59.169Z,27.70
2018-06-04T19:12:28.005Z,27.70
2018-06-04T19:14:56.919Z,27.60
2018-06-04T19:17:25.685Z,27.50
2018-06-04T19:19:54.529Z,27.60
2018-06-04T19:22:23.375Z,27.50
2018-06-04T19:24:52.215Z,27.50
2018-06-04T19:27:21.982Z,27.40
2018-06-04T19:29:50.841Z,27.40
2018-06-04T19:32:19.688Z,27.40
2018-06-04T19:34:48.517Z,27.30
2018-06-04T19:37:17.349Z,27.30
2018-06-04T19:39:46.188Z,27.20
2018-06-04T19:42:15.029Z,27.20
2018-06-04T19:44:43.875Z,27.10
2018-06-04T19:47:12.734Z,27.10
2018-06-04T19:49:41.586Z,27.10
2018-06-04T19:52:10.432Z,27.00
2018-06-04T19:54:40.045Z,26.80
2018-06-04T19:57:08.918Z,26.80
2018-06-04T19:59:38.491Z,26.70
2018-06-04T20:02:07.331Z,26.70
2018-06-04T20:04:36.166Z,26.60
2018-06-04T20:07:05.005Z,26.50
2018-06-04T20:09:33.862Z,26.50
2018-06-04T20:12:02.691Z,26.50
2018-06-04T20:14:31.526Z,26.40
2018-06-04T20:17:00.369Z,26.40
2018-06-04T20:19:29.214Z,26.30
2018-06-04T20:21:58.041Z,26.20
2018-06-04T20:24:26.870Z,26.10
2018-06-04T20:26:55.705Z,26.10
2018-06-04T20:29:25.312Z,26.00
2018-06-04T20:31:54.906Z,26.00
2018-06-04T20:34:23.849Z,26.10
2018-06-04T20:36:52.588Z,26.00
2018-06-04T20:39:22.164Z,25.90
2018-06-04T20:41:51.007Z,26.00
2018-06-04T20:44:19.847Z,25.90
2018-06-04T20:46:48.692Z,25.80
2018-06-04T20:49:18.263Z,25.80
2018-06-04T20:51:47.839Z,25.70
2018-06-04T20:54:16.667Z,25.60
2018-06-04T20:56:46.253Z,25.60
2018-06-04T20:59:15.092Z,25.60
2018-06-04T21:01:43.923Z,25.60
2018-06-04T21:04:12.761Z,25.60
2018-06-04T21:06:41.594Z,25.40
2018-06-04T21:09:10.460Z,25.40
2018-06-04T21:11:39.287Z,25.40
2018-06-04T21:14:08.117Z,25.30
2018-06-04T21:16:36.957Z,25.30
2018-06-04T21:19:05.790Z,25.30
2018-06-04T21:21:34.614Z,25.20
2018-06-04T21:24:03.453Z,25.20
2018-06-04T21:26:33.038Z,25.30
2018-06-04T21:29:01.877Z,25.30
2018-06-04T21:31:30.724Z,25.20
2018-06-04T21:33:59.571Z,25.20
2018-06-04T21:36:28.401Z,25.20
2018-06-04T21:38:57.245Z,25.10
2018-06-04T21:41:26.103Z,25.10
2018-06-04T21:43:56.023Z,25.00
2018-06-04T21:46:25.606Z,25.00
2018-06-04T21:48:54.450Z,24.90
2018-06-04T21:51:23.294Z,24.90
2018-06-04T21:53:52.139Z,24.80
2018-06-04T21:56:20.978Z,24.90
2018-06-04T21:58:49.805Z,24.70
2018-06-04T22:01:18.649Z,24.70
2018-06-04T22:03:47.519Z,24.70
2018-06-04T22:08:46.518Z,24.60
2018-06-04T22:11:15.352Z,24.60
2018-06-04T22:13:44.197Z,24.50
2018-06-04T22:16:13.042Z,24.50
2018-06-04T22:18:41.880Z,24.50
2018-06-04T22:21:10.712Z,24.40
2018-06-04T22:23:39.589Z,24.50
2018-06-04T22:26:08.422Z,24.50
2018-06-04T22:28:37.257Z,24.30
2018-06-04T22:31:06.848Z,24.20
2018-06-04T22:36:16.177Z,24.10
2018-06-04T22:38:45.014Z,24.00
2018-06-04T22:41:14.581Z,24.00
2018-06-04T22:43:43.412Z,24.00
2018-06-04T22:46:12.994Z,23.90
2018-06-04T22:48:41.843Z,23.80
2018-06-04T22:51:10.683Z,23.90
2018-06-04T22:53:39.531Z,23.90
2018-06-04T22:56:08.370Z,23.80
2018-06-04T22:58:37.949Z,23.80
2018-06-04T23:01:06.781Z,23.70
2018-06-04T23:03:35.617Z,23.60
2018-06-04T23:06:04.470Z,23.60
2018-06-04T23:08:33.306Z,23.40
2018-06-04T23:11:02.153Z,23.40
2018-06-04T23:13:30.988Z,23.40
2018-06-04T23:18:29.990Z,23.30
2018-06-04T23:20:58.824Z,23.30
2018-06-04T23:23:27.657Z,23.30
2018-06-04T23:25:56.496Z,23.30
2018-06-04T23:28:25.347Z,23.20
2018-06-04T23:30:54.175Z,23.20
2018-06-04T23:33:23.050Z,23.20
2018-06-04T23:35:52.643Z,23.20
2018-06-04T23:38:21.486Z,23.00
2018-06-04T23:40:50.314Z,23.10
2018-06-04T23:43:19.158Z,23.10
2018-06-04T23:45:48.002Z,23.00
2018-06-04T23:50:46.984Z,22.90
2018-06-04T23:53:15.809Z,22.90
2018-06-04T23:55:45.382Z,22.90
2018-06-04T23:58:14.219Z,22.80
